createdAt,value
2018-04-15T00:00:01.534Z,0
2018-04-15T00:01:02.248Z,0
2018-04-15T00:02:02.971Z,0
2018-04-15T00:03:03.695Z,0
2018-04-15T00:04:04.406Z,0
2018-04-15T00:05:05.131Z,0
2018-04-15T00:06:05.844Z,0
2018-04-15T00:07:06.571Z,0
2018-04-15T00:08:07.284Z,0
2018-04-15T00:09:08.034Z,0
2018-04-15T00:10:08.762Z,0
2018-04-15T00:11:09.474Z,0
2018-04-15T00:12:10.188Z,0
2018-04-15T00:13:10.901Z,0
2018-04-15T00:14:11.613Z,0
2018-04-15T00:15:12.324Z,0
2018-04-15T00:16:13.037Z,0
2018-04-15T00:17:13.760Z,0
2018-04-15T00:18:14.474Z,0
2018-04-15T00:19:15.187Z,0
2018-04-15T00:20:15.913Z,0
2018-04-15T00:21:16.627Z,0
2018-04-15T00:22:17.341Z,0
2018-04-15T00:23:18.055Z,0
2018-04-15T00:24:18.769Z,0
2018-04-15T00:25:19.482Z,0
2018-04-15T00:26:20.207Z,0
2018-04-15T00:27:20.933Z,0
2018-04-15T00:28:21.660Z,0
2018-04-15T00:29:22.374Z,0
2018-04-15T00:30:23.088Z,0
2018-04-15T00:31:23.797Z,0
2018-04-15T00:32:24.509Z,0
2018-04-15T00:33:25.223Z,0
2018-04-15T00:34:25.934Z,0
2018-04-15T00:35:26.649Z,0
2018-04-15T00:36:27.371Z,0
2018-04-15T00:37:28.088Z,0
2018-04-15T00:38:28.812Z,0
2018-04-15T00:39:29.527Z,0
2018-04-15T00:40:30.241Z,0
2018-04-15T00:41:30.957Z,0
2018-04-15T00:42:31.681Z,0
2018-04-15T00:43:32.392Z,0
2018-04-15T00:44:33.105Z,0
2018-04-15T00:45:33.831Z,0
2018-04-15T00:46:34.541Z,0
2018-04-15T00:47:35.253Z,0
2018-04-15T00:48:35.965Z,0
2018-04-15T00:49:36.676Z,0
2018-04-15T00:50:37.407Z,0
2018-04-15T00:51:38.126Z,0
2018-04-15T00:52:38.840Z,0
2018-04-15T00:53:39.564Z,0
2018-04-15T00:54:40.291Z,0
2018-04-15T00:55:41.005Z,0
2018-04-15T00:56:41.716Z,0
2018-04-15T00:57:42.433Z,0
2018-04-15T00:58:43.145Z,0
2018-04-15T00:59:43.869Z,0
2018-04-15T01:00:44.582Z,0
2018-04-15T01:01:45.298Z,0
2018-04-15T01:02:46.023Z,0
2018-04-15T01:03:46.739Z,0
2018-04-15T01:04:47.453Z,0
2018-04-15T01:05:48.167Z,0
2018-04-15T01:06:48.879Z,0
2018-04-15T01:07:49.604Z,0
2018-04-15T01:08:50.318Z,0
2018-04-15T01:09:51.042Z,0
2018-04-15T01:10:51.753Z,0
2018-04-15T01:11:52.481Z,0
2018-04-15T01:12:53.193Z,0
2018-04-15T01:13:53.903Z,0
2018-04-15T01:14:54.628Z,0
2018-04-15T01:15:55.354Z,0
2018-04-15T01:16:56.068Z,0
2018-04-15T01:17:56.779Z,0
2018-04-15T01:18:57.491Z,0
2018-04-15T01:19:58.203Z,0
2018-04-15T01:20:58.916Z,0
2018-04-15T01:21:59.628Z,0
2018-04-15T01:23:00.342Z,0
2018-04-15T01:24:01.068Z,0
2018-04-15T01:25:01.780Z,0
2018-04-15T01:26:02.493Z,0
2018-04-15T01:27:03.205Z,0
2018-04-15T01:28:03.918Z,0
2018-04-15T01:29:04.630Z,0
2018-04-15T01:30:05.360Z,0
2018-04-15T01:31:06.082Z,0
2018-04-15T01:32:06.796Z,0
2018-04-15T01:33:07.510Z,0
2018-04-15T01:34:08.222Z,0
2018-04-15T01:35:08.947Z,0
2018-04-15T01:36:09.659Z,0
2018-04-15T01:37:10.370Z,0
2018-04-15T01:38:11.088Z,0
2018-04-15T01:39:11.813Z,0
2018-04-15T01:40:12.523Z,0
2018-04-15T01:41:13.248Z,0
2018-04-15T01:42:13.958Z,0
2018-04-15T01:43:14.670Z,0
2018-04-15T01:44:15.381Z,0
2018-04-15T01:45:16.093Z,0
2018-04-15T01:46:16.815Z,0
2018-04-15T01:47:17.525Z,0
2018-04-15T01:48:18.238Z,0
2018-04-15T01:49:18.963Z,0
2018-04-15T01:50:19.674Z,0
2018-04-15T01:51:20.386Z,0
2018-04-15T01:52:21.109Z,0
2018-04-15T01:53:21.822Z,0
2018-04-15T01:54:22.534Z,0
2018-04-15T01:55:23.247Z,0
2018-04-15T01:56:23.956Z,0
2018-04-15T01:57:24.671Z,0
2018-04-15T01:58:25.381Z,0
2018-04-15T01:59:26.101Z,0
2018-04-15T02:00:26.812Z,0
2018-04-15T02:01:27.524Z,0
2018-04-15T02:02:28.236Z,0
2018-04-15T02:03:28.946Z,0
2018-04-15T02:04:29.657Z,0
2018-04-15T02:05:30.371Z,0
2018-04-15T02:06:31.103Z,0
2018-04-15T02:07:31.791Z,0
2018-04-15T02:08:32.510Z,0
2018-04-15T02:09:33.222Z,0
2018-04-15T02:10:33.934Z,0
2018-04-15T02:11:34.651Z,0
2018-04-15T02:12:35.369Z,0
2018-04-15T02:13:36.091Z,0
2018-04-15T02:14:36.804Z,0
2018-04-15T02:15:37.528Z,0
2018-04-15T02:16:38.237Z,0
2018-04-15T02:17:38.959Z,0
2018-04-15T02:18:39.682Z,0
2018-04-15T02:19:40.392Z,0
2018-04-15T02:20:41.105Z,0
2018-04-15T02:21:41.816Z,0
2018-04-15T02:22:42.529Z,0
2018-04-15T02:23:43.252Z,0
2018-04-15T02:24:43.963Z,0
2018-04-15T02:25:44.676Z,0
2018-04-15T02:26:45.386Z,0
2018-04-15T02:27:46.098Z,0
2018-04-15T02:28:46.808Z,0
2018-04-15T02:29:47.566Z,0
2018-04-15T02:30:48.233Z,0
2018-04-15T02:31:48.949Z,0
2018-04-15T02:32:49.666Z,0
2018-04-15T02:33:50.376Z,0
2018-04-15T02:34:51.099Z,0
2018-04-15T02:35:51.810Z,0
2018-04-15T02:36:52.525Z,0
2018-04-15T02:37:53.246Z,0
2018-04-15T02:38:53.959Z,0
2018-04-15T02:39:54.668Z,0
2018-04-15T02:40:55.378Z,0
2018-04-15T02:41:56.096Z,0
2018-04-15T02:42:56.800Z,0
2018-04-15T02:43:57.510Z,0
2018-04-15T02:44:58.223Z,0
2018-04-15T02:45:58.947Z,0
2018-04-15T02:46:59.660Z,0
2018-04-15T02:48:00.371Z,0
2018-04-15T02:49:01.093Z,0
2018-04-15T02:50:01.806Z,0
2018-04-15T02:51:02.514Z,0
2018-04-15T02:52:03.287Z,0
2018-04-15T02:53:03.936Z,0
2018-04-15T02:54:04.646Z,0
2018-04-15T02:55:05.357Z,0
2018-04-15T02:56:06.071Z,0
2018-04-15T02:57:06.792Z,0
2018-04-15T02:58:07.505Z,0
2018-04-15T02:59:08.216Z,0
2018-04-15T03:00:08.928Z,0
2018-04-15T03:01:09.639Z,0
2018-04-15T03:02:10.350Z,0
2018-04-15T03:03:11.072Z,0
2018-04-15T03:04:11.798Z,0
2018-04-15T03:05:12.515Z,0
2018-04-15T03:06:13.225Z,0
2018-04-15T03:07:13.947Z,0
2018-04-15T03:08:14.672Z,0
2018-04-15T03:09:15.381Z,0
2018-04-15T03:10:16.093Z,0
2018-04-15T03:11:16.805Z,0
2018-04-15T03:12:17.519Z,0
2018-04-15T03:13:18.238Z,0
2018-04-15T03:14:18.964Z,0
2018-04-15T03:15:19.675Z,0
2018-04-15T03:16:20.399Z,0
2018-04-15T03:17:21.107Z,0
2018-04-15T03:18:21.822Z,0
2018-04-15T03:19:22.529Z,0
2018-04-15T03:20:23.242Z,0
2018-04-15T03:21:23.962Z,0
2018-04-15T03:22:24.675Z,0
2018-04-15T03:23:25.387Z,0
2018-04-15T03:24:26.098Z,0
2018-04-15T03:25:26.809Z,0
2018-04-15T03:26:27.519Z,0
2018-04-15T03:27:28.243Z,0
2018-04-15T03:28:28.957Z,0
2018-04-15T03:29:29.697Z,0
2018-04-15T03:30:30.380Z,0
2018-04-15T03:31:31.103Z,0
2018-04-15T03:32:31.827Z,0
2018-04-15T03:33:32.538Z,0
2018-04-15T03:34:33.263Z,0
2018-04-15T03:35:33.985Z,0
2018-04-15T03:36:34.697Z,0
2018-04-15T03:37:35.410Z,0
2018-04-15T03:38:36.121Z,0
2018-04-15T03:39:36.830Z,0
2018-04-15T03:40:37.544Z,0
2018-04-15T03:41:38.253Z,0
2018-04-15T03:42:38.965Z,0
2018-04-15T03:43:39.677Z,0
2018-04-15T03:44:40.389Z,0
2018-04-15T03:45:41.099Z,0
2018-04-15T03:46:41.823Z,0
2018-04-15T03:47:42.536Z,0
2018-04-15T03:48:43.248Z,0
2018-04-15T03:49:43.961Z,0
2018-04-15T03:50:44.676Z,0
2018-04-15T03:51:45.396Z,0
2018-04-15T03:52:46.106Z,0
2018-04-15T03:53:46.819Z,0
2018-04-15T03:54:47.530Z,0
2018-04-15T03:55:48.241Z,0
2018-04-15T03:56:48.964Z,0
2018-04-15T03:57:49.688Z,0
2018-04-15T03:58:50.411Z,0
2018-04-15T03:59:51.124Z,0
2018-04-15T04:00:51.836Z,0
2018-04-15T04:01:52.547Z,0
2018-04-15T04:02:53.257Z,0
2018-04-15T04:03:53.970Z,0
2018-04-15T04:04:54.683Z,0
2018-04-15T04:05:55.395Z,0
2018-04-15T04:06:56.106Z,0
2018-04-15T04:07:56.819Z,0
2018-04-15T04:08:57.528Z,0
2018-04-15T04:09:58.242Z,0
2018-04-15T04:10:58.952Z,0
2018-04-15T04:11:59.663Z,0
2018-04-15T04:13:00.387Z,0
2018-04-15T04:14:01.102Z,4
2018-04-15T04:15:01.825Z,4
2018-04-15T04:16:02.540Z,4
2018-04-15T04:17:03.249Z,0
2018-04-15T04:18:03.959Z,4
2018-04-15T04:19:04.672Z,4
2018-04-15T04:20:05.397Z,0
2018-04-15T04:21:06.108Z,4
2018-04-15T04:22:06.825Z,4
2018-04-15T04:23:07.534Z,8
2018-04-15T04:24:08.247Z,8
2018-04-15T04:25:08.959Z,4
2018-04-15T04:26:09.669Z,8
2018-04-15T04:27:10.392Z,8
2018-04-15T04:28:11.103Z,12
2018-04-15T04:29:11.827Z,12
2018-04-15T04:30:12.541Z,12
2018-04-15T04:31:13.254Z,16
2018-04-15T04:32:13.978Z,16
2018-04-15T04:33:14.701Z,16
2018-04-15T04:34:15.414Z,20
2018-04-15T04:35:16.127Z,20
2018-04-15T04:36:16.839Z,24
2018-04-15T04:37:17.564Z,24
2018-04-15T04:38:18.276Z,24
2018-04-15T04:39:18.988Z,28
2018-04-15T04:40:19.702Z,28
2018-04-15T04:41:20.417Z,32
2018-04-15T04:42:21.145Z,32
2018-04-15T04:43:21.870Z,32
2018-04-15T04:44:22.582Z,40
2018-04-15T04:45:23.297Z,44
2018-04-15T04:46:24.009Z,48
2018-04-15T04:47:24.736Z,52
2018-04-15T04:48:25.458Z,52
2018-04-15T04:49:26.170Z,56
2018-04-15T04:50:26.888Z,56
2018-04-15T04:51:27.597Z,60
2018-04-15T04:52:28.309Z,76
2018-04-15T04:53:29.022Z,80
2018-04-15T04:54:29.735Z,84
2018-04-15T04:55:30.447Z,88
2018-04-15T04:56:31.160Z,92
2018-04-15T04:57:31.872Z,92
2018-04-15T04:58:32.597Z,88
2018-04-15T04:59:33.311Z,96
2018-04-15T05:00:34.037Z,112
2018-04-15T05:01:34.751Z,116
2018-04-15T05:02:35.465Z,120
2018-04-15T05:03:36.192Z,128
2018-04-15T05:04:36.907Z,136
2018-04-15T05:05:37.619Z,132
2018-04-15T05:06:38.332Z,140
2018-04-15T05:07:39.116Z,152
2018-04-15T05:08:39.757Z,164
2018-04-15T05:09:40.470Z,168
2018-04-15T05:10:41.186Z,168
2018-04-15T05:11:41.900Z,184
2018-04-15T05:12:42.625Z,204
2018-04-15T05:13:43.351Z,220
2018-04-15T05:14:44.076Z,216
2018-04-15T05:15:44.791Z,232
2018-04-15T05:16:45.519Z,228
2018-04-15T05:17:46.235Z,220
2018-04-15T05:18:46.948Z,236
2018-04-15T05:19:47.664Z,252
2018-04-15T05:20:48.376Z,268
2018-04-15T05:21:49.103Z,280
2018-04-15T05:22:49.815Z,292
2018-04-15T05:23:50.532Z,296
2018-04-15T05:24:51.246Z,296
2018-04-15T05:25:51.970Z,292
2018-04-15T05:26:52.683Z,296
2018-04-15T05:27:53.404Z,304
2018-04-15T05:28:54.116Z,316
2018-04-15T05:29:54.830Z,312
2018-04-15T05:30:55.557Z,316
2018-04-15T05:31:56.271Z,308
2018-04-15T05:32:56.983Z,284
2018-04-15T05:33:57.698Z,248
2018-04-15T05:34:58.411Z,216
2018-04-15T05:35:59.138Z,188
2018-04-15T05:36:59.864Z,180
2018-04-15T05:38:00.589Z,260
2018-04-15T05:39:01.328Z,276
2018-04-15T05:40:02.041Z,328
2018-04-15T05:41:02.754Z,380
2018-04-15T05:42:03.481Z,388
2018-04-15T05:43:04.199Z,440
2018-04-15T05:44:04.922Z,460
2018-04-15T05:45:05.637Z,440
2018-04-15T05:46:06.351Z,428
2018-04-15T05:47:07.065Z,436
2018-04-15T05:48:07.791Z,468
2018-04-15T05:49:08.508Z,508
2018-04-15T05:50:09.235Z,468
2018-04-15T05:51:09.953Z,392
2018-04-15T05:52:10.666Z,448
2018-04-15T05:53:11.380Z,512
2018-04-15T05:54:12.093Z,448
2018-04-15T05:55:12.807Z,512
2018-04-15T05:56:13.536Z,456
2018-04-15T05:57:14.249Z,432
2018-04-15T05:58:14.963Z,524
2018-04-15T05:59:15.688Z,584
2018-04-15T06:00:16.402Z,516
2018-04-15T06:01:17.118Z,552
2018-04-15T06:02:17.844Z,560
2018-04-15T06:03:18.561Z,600
2018-04-15T06:04:19.287Z,728
2018-04-15T06:05:20.038Z,844
2018-04-15T06:06:20.718Z,896
2018-04-15T06:07:21.433Z,860
2018-04-15T06:08:22.150Z,908
2018-04-15T06:09:22.862Z,892
2018-04-15T06:10:23.589Z,932
2018-04-15T06:11:24.307Z,892
2018-04-15T06:12:25.031Z,840
2018-04-15T06:13:25.744Z,776
2018-04-15T06:14:26.460Z,784
2018-04-15T06:15:27.182Z,732
2018-04-15T06:16:27.904Z,720
2018-04-15T06:17:28.618Z,756
2018-04-15T06:18:29.345Z,712
2018-04-15T06:19:30.059Z,712
2018-04-15T06:20:30.772Z,844
2018-04-15T06:21:31.493Z,1032
2018-04-15T06:22:32.205Z,800
2018-04-15T06:23:32.920Z,792
2018-04-15T06:24:33.664Z,1208
2018-04-15T06:25:34.350Z,1464
2018-04-15T06:26:35.077Z,1468
2018-04-15T06:27:35.794Z,1416
2018-04-15T06:28:36.508Z,1284
2018-04-15T06:29:37.225Z,1076
2018-04-15T06:30:37.941Z,864
2018-04-15T06:31:38.655Z,872
2018-04-15T06:32:39.368Z,712
2018-04-15T06:33:40.083Z,772
2018-04-15T06:34:40.798Z,1120
2018-04-15T06:35:41.527Z,1276
2018-04-15T06:36:42.266Z,1308
2018-04-15T06:37:42.960Z,1372
2018-04-15T06:38:43.674Z,1388
2018-04-15T06:39:44.391Z,1384
2018-04-15T06:40:45.105Z,1512
2018-04-15T06:41:45.821Z,1536
2018-04-15T06:42:46.538Z,1540
2018-04-15T06:43:47.255Z,1568
2018-04-15T06:44:47.972Z,1628
2018-04-15T06:45:48.687Z,1724
2018-04-15T06:46:49.404Z,1792
2018-04-15T06:47:50.118Z,1900
2018-04-15T06:48:50.836Z,1972
2018-04-15T06:49:51.551Z,2032
2018-04-15T06:50:52.267Z,2072
2018-04-15T06:51:52.984Z,2116
2018-04-15T06:52:53.703Z,2184
2018-04-15T06:53:54.425Z,2284
2018-04-15T06:54:55.132Z,2384
2018-04-15T06:55:55.851Z,2464
2018-04-15T06:56:56.581Z,2540
2018-04-15T06:57:57.297Z,2624
2018-04-15T06:58:58.013Z,2716
2018-04-15T06:59:58.727Z,2776
2018-04-15T07:00:59.443Z,2812
2018-04-15T07:02:00.161Z,2920
2018-04-15T07:03:00.877Z,3052
2018-04-15T07:04:01.594Z,3080
2018-04-15T07:05:02.311Z,3148
2018-04-15T07:06:03.029Z,3432
2018-04-15T07:07:03.745Z,3568
2018-04-15T07:08:04.463Z,3716
2018-04-15T07:09:05.185Z,3848
2018-04-15T07:10:05.911Z,4012
2018-04-15T07:11:06.627Z,4024
2018-04-15T07:12:07.346Z,4024
2018-04-15T07:13:08.067Z,4080
2018-04-15T07:14:08.790Z,4028
2018-04-15T07:15:09.509Z,4084
2018-04-15T07:16:10.228Z,4044
2018-04-15T07:17:10.946Z,4252
2018-04-15T07:18:11.662Z,4420
2018-04-15T07:19:12.380Z,4572
2018-04-15T07:20:13.100Z,4496
2018-04-15T07:21:13.817Z,4428
2018-04-15T07:22:14.538Z,4684
2018-04-15T07:23:15.255Z,5112
2018-04-15T07:24:15.973Z,5396
2018-04-15T07:25:16.690Z,5704
2018-04-15T07:26:17.408Z,5736
2018-04-15T07:27:18.126Z,5736
2018-04-15T07:28:18.846Z,5908
2018-04-15T07:29:19.563Z,6244
2018-04-15T07:30:20.282Z,6124
2018-04-15T07:31:20.999Z,6284
2018-04-15T07:32:21.717Z,6036
2018-04-15T07:33:22.438Z,5728
2018-04-15T07:34:23.157Z,5660
2018-04-15T07:35:23.874Z,5880
2018-04-15T07:36:24.659Z,6700
2018-04-15T07:37:25.314Z,6988
2018-04-15T07:38:26.032Z,7908
2018-04-15T07:39:26.751Z,8920
2018-04-15T07:40:27.470Z,6340
2018-04-15T07:41:28.187Z,5396
2018-04-15T07:42:28.904Z,4932
2018-04-15T07:43:29.623Z,4628
2018-04-15T07:44:30.342Z,4828
2018-04-15T07:45:31.058Z,4800
2018-04-15T07:46:31.776Z,4876
2018-04-15T07:47:32.495Z,4472
2018-04-15T07:48:33.226Z,4776
2018-04-15T07:49:33.943Z,5464
2018-04-15T07:50:34.660Z,6512
2018-04-15T07:51:35.387Z,6784
2018-04-15T07:52:36.097Z,6740
2018-04-15T07:53:36.823Z,7068
2018-04-15T07:54:37.542Z,8364
2018-04-15T07:55:38.259Z,7624
2018-04-15T07:56:38.980Z,7612
2018-04-15T07:57:39.698Z,7860
2018-04-15T07:58:40.420Z,9484
2018-04-15T07:59:41.146Z,9804
2018-04-15T08:00:41.874Z,9596
2018-04-15T08:01:42.581Z,9912
2018-04-15T08:02:43.300Z,10108
2018-04-15T08:03:44.021Z,10408
2018-04-15T08:04:44.740Z,9004
2018-04-15T08:05:45.461Z,8768
2018-04-15T08:06:46.192Z,9496
2018-04-15T08:07:46.955Z,10008
2018-04-15T08:08:47.636Z,9104
2018-04-15T08:09:48.356Z,10132
2018-04-15T08:10:49.075Z,10676
2018-04-15T08:11:49.795Z,10300
2018-04-15T08:12:50.528Z,13300
2018-04-15T08:13:51.248Z,15876
2018-04-15T08:14:51.969Z,24224
2018-04-15T08:15:52.702Z,26368
2018-04-15T08:16:53.425Z,31264
2018-04-15T08:17:54.150Z,57664
2018-04-15T08:18:54.884Z,41248
2018-04-15T08:19:55.609Z,56192
2018-04-15T08:20:56.335Z,54592
2018-04-15T08:21:57.067Z,46816
2018-04-15T08:22:57.796Z,34784
2018-04-15T08:23:58.519Z,22912
2018-04-15T08:24:59.258Z,23680
2018-04-15T08:25:59.984Z,21856
2018-04-15T08:27:00.706Z,24352
2018-04-15T08:28:01.433Z,26720
2018-04-15T08:29:02.158Z,29344
2018-04-15T08:30:02.885Z,23008
2018-04-15T08:31:03.610Z,16928
2018-04-15T08:32:04.347Z,16208
2018-04-15T08:33:05.072Z,14164
2018-04-15T08:34:05.796Z,15252
2018-04-15T08:35:06.532Z,16992
2018-04-15T08:36:07.256Z,17664
2018-04-15T08:37:07.981Z,17984
2018-04-15T08:38:08.706Z,23360
2018-04-15T08:39:09.432Z,41760
2018-04-15T08:40:10.156Z,33728
2018-04-15T08:41:10.889Z,55840
2018-04-15T08:42:11.620Z,38784
2018-04-15T08:43:12.416Z,28224
2018-04-15T08:44:13.088Z,18848
2018-04-15T08:45:13.813Z,17216
2018-04-15T08:46:14.550Z,16132
2018-04-15T08:47:15.277Z,15568
2018-04-15T08:48:16.014Z,15284
2018-04-15T08:49:16.740Z,14928
2018-04-15T08:50:17.465Z,15628
2018-04-15T08:51:18.204Z,16068
2018-04-15T08:52:18.927Z,16140
2018-04-15T08:53:19.652Z,16144
2018-04-15T08:54:20.388Z,16896
2018-04-15T08:55:21.113Z,17696
2018-04-15T08:56:21.837Z,19488
2018-04-15T08:57:22.563Z,20448
2018-04-15T08:58:23.288Z,20128
2018-04-15T08:59:24.012Z,18496
2018-04-15T09:00:24.736Z,18688
2018-04-15T09:01:25.465Z,19296
2018-04-15T09:02:26.189Z,26592
2018-04-15T09:03:26.918Z,45568
2018-04-15T09:04:27.641Z,79136
2018-04-15T09:05:28.372Z,81472
2018-04-15T09:06:29.102Z,48608
2018-04-15T09:07:29.831Z,29440
2018-04-15T09:08:30.558Z,28000
2018-04-15T09:09:31.286Z,32608
2018-04-15T09:10:32.018Z,25120
2018-04-15T09:11:32.754Z,22592
2018-04-15T09:12:33.476Z,22208
2018-04-15T09:13:34.207Z,21952
2018-04-15T09:14:34.949Z,22688
2018-04-15T09:15:35.688Z,28640
2018-04-15T09:16:36.414Z,34048
2018-04-15T09:17:37.143Z,31424
2018-04-15T09:18:37.876Z,40832
2018-04-15T09:19:38.606Z,38464
2018-04-15T09:20:39.340Z,45920
2018-04-15T09:21:40.073Z,53600
2018-04-15T09:22:40.809Z,61280
2018-04-15T09:23:41.542Z,89760
2018-04-15T09:24:42.277Z,86432
2018-04-15T09:25:43.021Z,82720
2018-04-15T09:26:43.752Z,78592
2018-04-15T09:27:44.487Z,80064
2018-04-15T09:28:45.221Z,77760
2018-04-15T09:29:45.953Z,80800
2018-04-15T09:30:46.686Z,83008
2018-04-15T09:31:47.418Z,84224
2018-04-15T09:32:48.151Z,85568
2018-04-15T09:33:48.897Z,87040
2018-04-15T09:34:49.631Z,88512
2018-04-15T09:35:50.366Z,88672
2018-04-15T09:36:51.100Z,73088
2018-04-15T09:37:51.831Z,20288
2018-04-15T09:38:52.572Z,50880
2018-04-15T09:39:53.305Z,88448
2018-04-15T09:40:54.038Z,88288
2018-04-15T09:41:54.770Z,86688
2018-04-15T09:42:55.502Z,19328
2018-04-15T09:43:56.279Z,43872
2018-04-15T09:44:57.009Z,12444
2018-04-15T09:45:57.753Z,15496
2018-04-15T09:46:58.484Z,50720
2018-04-15T09:47:59.216Z,69472
2018-04-15T09:48:59.961Z,92544
2018-04-15T09:50:00.693Z,94400
2018-04-15T09:51:01.425Z,95392
2018-04-15T09:52:02.204Z,88800
2018-04-15T09:53:02.938Z,98112
2018-04-15T09:54:03.716Z,98848
2018-04-15T09:55:04.407Z,19488
2018-04-15T09:56:05.136Z,30688
2018-04-15T09:57:05.870Z,94400
2018-04-15T09:58:06.667Z,91840
2018-04-15T09:59:07.403Z,88736
2018-04-15T10:00:08.161Z,48896
2018-04-15T10:01:08.907Z,61888
2018-04-15T10:02:09.649Z,17920
2018-04-15T10:03:10.379Z,13860
2018-04-15T10:04:11.110Z,17408
2018-04-15T10:05:11.843Z,87840
2018-04-15T10:06:12.572Z,21984
2018-04-15T10:07:13.303Z,18848
2018-04-15T10:08:14.032Z,24064
2018-04-15T10:09:14.764Z,85856
2018-04-15T10:10:15.494Z,89216
2018-04-15T10:11:16.303Z,49280
2018-04-15T10:12:17.050Z,81824
2018-04-15T10:13:17.796Z,96096
2018-04-15T10:14:18.537Z,94432
2018-04-15T10:15:19.272Z,81472
2018-04-15T10:16:20.001Z,95168
2018-04-15T10:17:20.749Z,94816
2018-04-15T10:18:21.486Z,77984
2018-04-15T10:19:22.217Z,91360
2018-04-15T10:20:22.952Z,80288
2018-04-15T10:21:23.697Z,26816
2018-04-15T10:22:24.426Z,21472
2018-04-15T10:23:25.159Z,49536
2018-04-15T10:24:25.894Z,90560
2018-04-15T10:25:26.628Z,78304
2018-04-15T10:26:27.359Z,89632
2018-04-15T10:27:28.104Z,20576
2018-04-15T10:28:28.835Z,92960
2018-04-15T10:29:29.569Z,88192
2018-04-15T10:30:30.313Z,92928
2018-04-15T10:31:31.047Z,64544
2018-04-15T10:32:31.781Z,91680
2018-04-15T10:33:32.526Z,93632
2018-04-15T10:34:33.261Z,88960
2018-04-15T10:35:33.996Z,33216
2018-04-15T10:36:34.741Z,97088
2018-04-15T10:37:35.475Z,78368
2018-04-15T10:38:36.251Z,24416
2018-04-15T10:39:36.996Z,24736
2018-04-15T10:40:37.728Z,22624
2018-04-15T10:41:38.462Z,93280
2018-04-15T10:42:39.196Z,76544
2018-04-15T10:43:39.940Z,93344
2018-04-15T10:44:40.674Z,92096
2018-04-15T10:45:41.410Z,76224
2018-04-15T10:46:42.151Z,38368
2018-04-15T10:47:42.885Z,78208
2018-04-15T10:48:43.630Z,97344
2018-04-15T10:49:44.366Z,57696
2018-04-15T10:50:45.103Z,90464
2018-04-15T10:51:45.836Z,89792
2018-04-15T10:52:46.574Z,91424
2018-04-15T10:53:47.313Z,93568
2018-04-15T10:54:48.050Z,93120
2018-04-15T10:55:48.784Z,90816
2018-04-15T10:56:49.521Z,90048
2018-04-15T10:57:50.257Z,87360
2018-04-15T10:58:50.992Z,88416
2018-04-15T10:59:51.738Z,92128
2018-04-15T11:00:52.471Z,42784
2018-04-15T11:01:53.205Z,17344
2018-04-15T11:02:53.940Z,19904
2018-04-15T11:03:54.671Z,21376
2018-04-15T11:04:55.402Z,97280
2018-04-15T11:05:56.157Z,99904
2018-04-15T11:06:56.880Z,98912
2018-04-15T11:07:57.612Z,93376
2018-04-15T11:08:58.348Z,90912
2018-04-15T11:09:59.082Z,89728
2018-04-15T11:10:59.817Z,91776
2018-04-15T11:12:00.552Z,94240
2018-04-15T11:13:01.287Z,99776
2018-04-15T11:14:02.045Z,67840
2018-04-15T11:15:02.763Z,90976
2018-04-15T11:16:03.501Z,88576
2018-04-15T11:17:04.238Z,36288
2018-04-15T11:18:04.973Z,26272
2018-04-15T11:19:05.708Z,20384
2018-04-15T11:20:06.447Z,22944
2018-04-15T11:21:07.172Z,63520
2018-04-15T11:22:07.906Z,74176
2018-04-15T11:23:08.636Z,20576
2018-04-15T11:24:09.378Z,19488
2018-04-15T11:25:10.110Z,22656
2018-04-15T11:26:10.843Z,86688
2018-04-15T11:27:11.576Z,96320
2018-04-15T11:28:12.320Z,23616
2018-04-15T11:29:13.060Z,19232
2018-04-15T11:30:13.791Z,17152
2018-04-15T11:31:14.526Z,22112
2018-04-15T11:32:15.251Z,22816
2018-04-15T11:33:15.983Z,19904
2018-04-15T11:34:16.724Z,16940
2018-04-15T11:35:17.455Z,15796
2018-04-15T11:36:18.184Z,19008
2018-04-15T11:37:18.913Z,14564
2018-04-15T11:38:19.655Z,13984
2018-04-15T11:39:20.382Z,16536
2018-04-15T11:40:21.110Z,28608
2018-04-15T11:41:21.838Z,25280
2018-04-15T11:42:22.564Z,18848
2018-04-15T11:43:23.291Z,14660
2018-04-15T11:44:24.019Z,11684
2018-04-15T11:45:24.746Z,10716
2018-04-15T11:46:25.473Z,11792
2018-04-15T11:47:26.200Z,11564
2018-04-15T11:48:26.927Z,10996
2018-04-15T11:49:27.663Z,10752
2018-04-15T11:50:28.392Z,10340
2018-04-15T11:51:29.176Z,9440
2018-04-15T11:52:29.871Z,8856
2018-04-15T11:53:30.594Z,8824
2018-04-15T11:54:31.321Z,9568
2018-04-15T11:55:32.050Z,10172
2018-04-15T11:56:32.782Z,11704
2018-04-15T11:57:33.509Z,12188
2018-04-15T11:58:34.298Z,12824
2018-04-15T11:59:34.970Z,12412
2018-04-15T12:00:35.703Z,12176
2018-04-15T12:01:36.432Z,11580
2018-04-15T12:02:37.163Z,11824
2018-04-15T12:03:37.892Z,11804
2018-04-15T12:04:38.618Z,11300
2018-04-15T12:05:39.358Z,11728
2018-04-15T12:06:40.090Z,13660
2018-04-15T12:07:40.818Z,30336
2018-04-15T12:08:41.557Z,19328
2018-04-15T12:09:42.286Z,19904
2018-04-15T12:10:43.031Z,20800
2018-04-15T12:11:43.763Z,20384
2018-04-15T12:12:44.501Z,73088
2018-04-15T12:13:45.229Z,66272
2018-04-15T12:14:45.958Z,19040
2018-04-15T12:15:46.690Z,12400
2018-04-15T12:16:47.431Z,10956
2018-04-15T12:17:48.165Z,19840
2018-04-15T12:18:48.890Z,76032
2018-04-15T12:19:49.635Z,41728
2018-04-15T12:20:50.372Z,27072
2018-04-15T12:21:51.099Z,15452
2018-04-15T12:22:51.831Z,18656
2018-04-15T12:23:52.557Z,77632
2018-04-15T12:24:53.301Z,79136
2018-04-15T12:25:54.032Z,74432
2018-04-15T12:26:54.763Z,76832
2018-04-15T12:27:55.501Z,48960
2018-04-15T12:28:56.236Z,76512
2018-04-15T12:29:56.979Z,80992
2018-04-15T12:30:57.725Z,81344
2018-04-15T12:31:58.456Z,28928
2018-04-15T12:32:59.490Z,80640
2018-04-15T12:34:00.280Z,24864
2018-04-15T12:35:00.955Z,29120
2018-04-15T12:36:01.697Z,22880
2018-04-15T12:37:02.430Z,43040
2018-04-15T12:38:03.162Z,68736
2018-04-15T12:39:03.891Z,24256
2018-04-15T12:40:04.623Z,19264
2018-04-15T12:41:05.358Z,17696
2018-04-15T12:42:06.096Z,18496
2018-04-15T12:43:06.841Z,74528
2018-04-15T12:44:07.587Z,73440
2018-04-15T12:45:08.327Z,52320
2018-04-15T12:46:09.057Z,25440
2018-04-15T12:47:09.802Z,80960
2018-04-15T12:48:10.535Z,21216
2018-04-15T12:49:11.262Z,20384
2018-04-15T12:50:12.001Z,20480
2018-04-15T12:51:12.731Z,17536
2018-04-15T12:52:13.463Z,14748
2018-04-15T12:53:14.193Z,15804
2018-04-15T12:54:14.924Z,13328
2018-04-15T12:55:15.653Z,17472
2018-04-15T12:56:16.383Z,11008
2018-04-15T12:57:17.112Z,9812
2018-04-15T12:58:17.854Z,9900
2018-04-15T12:59:18.578Z,12528
2018-04-15T13:00:19.307Z,28288
2018-04-15T13:01:20.038Z,71488
2018-04-15T13:02:20.765Z,74176
2018-04-15T13:03:21.493Z,71104
2018-04-15T13:04:22.223Z,70400
2018-04-15T13:05:22.962Z,18304
2018-04-15T13:06:23.703Z,16944
2018-04-15T13:07:24.463Z,26432
2018-04-15T13:08:25.161Z,22400
2018-04-15T13:09:25.890Z,71008
2018-04-15T13:10:26.619Z,35488
2018-04-15T13:11:27.349Z,39360
2018-04-15T13:12:28.081Z,19264
2018-04-15T13:13:28.823Z,17248
2018-04-15T13:14:29.554Z,17056
2018-04-15T13:15:30.285Z,15968
2018-04-15T13:16:31.017Z,15388
2018-04-15T13:17:31.750Z,15224
2018-04-15T13:18:32.493Z,14928
2018-04-15T13:19:33.222Z,17952
2018-04-15T13:20:33.965Z,18240
2018-04-15T13:21:34.697Z,16928
2018-04-15T13:22:35.426Z,20896
2018-04-15T13:23:36.166Z,20864
2018-04-15T13:24:36.897Z,20192
2018-04-15T13:25:37.629Z,19872
2018-04-15T13:26:38.359Z,20000
2018-04-15T13:27:39.086Z,17600
2018-04-15T13:28:39.816Z,21920
2018-04-15T13:29:40.546Z,18624
2018-04-15T13:30:41.277Z,18144
2018-04-15T13:31:42.019Z,23360
2018-04-15T13:32:42.749Z,22816
2018-04-15T13:33:43.479Z,17920
2018-04-15T13:34:44.208Z,19584
2018-04-15T13:35:44.940Z,19904
2018-04-15T13:36:45.682Z,20064
2018-04-15T13:37:46.414Z,20032
2018-04-15T13:38:47.139Z,19360
2018-04-15T13:39:47.869Z,18848
2018-04-15T13:40:48.610Z,16928
2018-04-15T13:41:49.341Z,16056
2018-04-15T13:42:50.073Z,15352
2018-04-15T13:43:50.803Z,14448
2018-04-15T13:44:51.533Z,13572
2018-04-15T13:45:52.273Z,12884
2018-04-15T13:46:53.005Z,12596
2018-04-15T13:47:53.728Z,12304